Time;durP1;ratioP1;P1;durP2;ratioP2;P2;SDS_P1;SDS_P2;PMS_P1;PMS_P2;Temp;Humidity;BMP_temperature;BMP_pressure;BME280_temperature;BME280_humidity;BME280_pressure;Samples;Min_cycle;Max_cycle;Signal;HPM_P1;HPM_P2
2024/04/08 00:01:39;;;;;;;;;;;;;;;9.18;100.00;99460.69;5073715;28;19923;-80
2024/04/08 00:04:04;;;;;;;;;;;;;;;9.07;100.00;99469.06;5074029;28;19916;-83
2024/04/08 00:06:29;;;;;;;;;;;;;;;9.19;100.00;99468.56;5073335;28;20014;-81
2024/04/08 00:08:55;;;;;;;;;;;;;;;9.34;100.00;99471.97;5074008;28;19940;-80
2024/04/08 00:11:20;;;;;;;;;;;;;;;9.45;100.00;99461.59;5073687;28;19968;-83
2024/04/08 00:13:45;;;;;;;;;;;;;;;9.39;100.00;99461.28;5073554;28;19921;-81
2024/04/08 00:16:11;;;;;;;;;;;;;;;9.49;100.00;99462.34;5073289;28;19920;-81
2024/04/08 00:18:36;;;;;;;;;;;;;;;9.52;100.00;99463.50;5073410;28;19920;-82
2024/04/08 00:21:02;;;;;;;;;;;;;;;9.51;100.00;99459.19;5072918;28;19917;-82
2024/04/08 00:23:28;;;;;;;;;;;;;;;9.59;100.00;99466.94;5073421;28;19920;-80
2024/04/08 00:25:53;;;;;;;;;;;;;;;9.67;100.00;99462.13;5073022;28;20290;-80
2024/04/08 00:28:18;;;;;;;;;;;;;;;9.69;100.00;99468.03;5073232;28;19917;-82
2024/04/08 00:30:44;;;;;;;;;;;;;;;9.73;99.55;99472.31;5073188;28;20313;-80
2024/04/08 00:33:09;;;;;;;;;;;;;;;9.71;100.00;99471.94;5073081;28;19955;-80
2024/04/08 00:35:34;;;;;;;;;;;;;;;9.58;99.97;99479.19;5072909;28;19916;-83
2024/04/08 00:37:59;;;;;;;;;;;;;;;9.41;99.70;99477.38;5072989;28;19931;-81
2024/04/08 00:40:25;;;;;;;;;;;;;;;9.42;100.00;99481.72;5074232;28;20301;-80
2024/04/08 00:42:52;;;;;;;;;;;;;;;9.24;100.00;99481.09;5073245;28;19923;-84
2024/04/08 00:45:18;;;;;;;;;;;;;;;9.34;100.00;99477.47;5072916;28;20341;-81
2024/04/08 00:47:43;;;;;;;;;;;;;;;9.39;100.00;99472.31;5063555;28;19917;-82
2024/04/08 00:50:11;;;;;;;;;;;;;;;9.47;98.54;99473.00;5070728;28;19917;-83
2024/04/08 00:52:36;;;;;;;;;;;;;;;9.38;98.40;99475.47;5074240;28;19924;-79
2024/04/08 00:55:02;;;;;;;;;;;;;;;9.35;98.29;99471.53;5072752;28;20018;-81
2024/04/08 00:57:29;;;;;;;;;;;;;;;9.29;98.51;99472.38;5072431;28;19921;-81
2024/04/08 00:59:54;;;;;;;;;;;;;;;9.24;97.68;99467.31;5072231;28;19929;-81
2024/04/08 01:02:20;;;;;;;;;;;;;;;9.17;98.24;99468.16;5072750;28;19916;-84
2024/04/08 01:04:45;;;;;;;;;;;;;;;9.10;98.33;99459.19;5072491;28;20299;-80
2024/04/08 01:07:10;;;;;;;;;;;;;;;9.15;98.24;99462.28;5074228;28;20808;-82
2024/04/08 01:09:36;;;;;;;;;;;;;;;9.05;98.27;99459.63;5072502;28;20382;-80
2024/04/08 01:12:01;;;;;;;;;;;;;;;9.05;98.50;99460.41;5073690;28;19959;-81
2024/04/08 01:14:26;;;;;;;;;;;;;;;8.89;98.41;99458.19;5058811;28;19921;-83
2024/04/08 01:16:52;;;;;;;;;;;;;;;8.84;98.82;99455.88;5071961;28;20382;-81
2024/04/08 01:19:23;;;;;;;;;;;;;;;8.83;98.73;99459.81;5071880;28;19930;-81
2024/04/08 01:21:49;;;;;;;;;;;;;;;8.85;98.82;99462.94;5073479;28;19943;-82
2024/04/08 01:24:14;;;;;;;;;;;;;;;8.82;98.91;99458.25;5072126;28;20382;-83
2024/04/08 01:26:40;;;;;;;;;;;;;;;8.74;99.51;99456.72;5072236;28;19916;-80
2024/04/08 01:29:05;;;;;;;;;;;;;;;8.64;100.00;99449.31;5073448;28;20423;-81
2024/04/08 01:31:30;;;;;;;;;;;;;;;8.42;100.00;99454.22;5072212;28;19947;-84
2024/04/08 01:33:56;;;;;;;;;;;;;;;8.13;100.00;99466.56;5071789;28;20344;-80
2024/04/08 01:36:21;;;;;;;;;;;;;;;8.11;100.00;99453.19;5072252;28;19916;-81
2024/04/08 01:38:46;;;;;;;;;;;;;;;8.11;100.00;99458.69;5071171;28;20356;-80
2024/04/08 01:41:12;;;;;;;;;;;;;;;8.21;100.00;99456.25;5071817;28;20008;-81
2024/04/08 01:43:37;;;;;;;;;;;;;;;8.28;100.00;99456.22;5071699;28;20278;-81
2024/04/08 01:46:02;;;;;;;;;;;;;;;8.00;100.00;99457.97;5071819;28;19920;-81
2024/04/08 01:48:28;;;;;;;;;;;;;;;8.09;100.00;99450.03;5072690;28;19919;-80
2024/04/08 01:50:53;;;;;;;;;;;;;;;8.50;100.00;99443.91;5071468;28;19920;-80
2024/04/08 01:53:18;;;;;;;;;;;;;;;8.31;100.00;99455.47;5071472;28;19916;-81
2024/04/08 01:55:44;;;;;;;;;;;;;;;8.46;100.00;99446.69;5073076;28;19973;-80
2024/04/08 01:58:10;;;;;;;;;;;;;;;8.46;99.67;99443.94;5071234;28;19939;-80
2024/04/08 02:00:35;;;;;;;;;;;;;;;8.52;99.90;99438.78;5071579;28;19973;-83
2024/04/08 02:03:01;;;;;;;;;;;;;;;8.57;99.76;99433.63;5070987;28;20024;-80
2024/04/08 02:05:26;;;;;;;;;;;;;;;8.61;99.29;99436.38;5071417;28;19927;-84
2024/04/08 02:07:51;;;;;;;;;;;;;;;8.66;99.09;99443.41;5071435;28;19932;-83
2024/04/08 02:10:18;;;;;;;;;;;;;;;8.60;98.75;99434.81;5071497;28;19990;-83
2024/04/08 02:12:43;;;;;;;;;;;;;;;8.64;98.78;99443.03;5071244;28;19920;-83
2024/04/08 02:15:09;;;;;;;;;;;;;;;8.74;98.35;99440.19;5071308;28;19923;-80
2024/04/08 02:17:34;;;;;;;;;;;;;;;8.76;98.22;99450.81;5071270;28;19916;-81
2024/04/08 02:19:59;;;;;;;;;;;;;;;8.70;97.87;99450.47;5072299;28;19916;-80
2024/04/08 02:22:24;;;;;;;;;;;;;;;8.56;98.22;99448.59;5071055;28;19927;-82
2024/04/08 02:24:50;;;;;;;;;;;;;;;8.32;97.10;99457.03;5072490;28;19971;-80
2024/04/08 02:27:15;;;;;;;;;;;;;;;8.13;96.17;99459.09;5070945;28;20412;-80
2024/04/08 02:29:40;;;;;;;;;;;;;;;7.91;95.90;99456.81;5072573;28;19999;-80
2024/04/08 02:32:06;;;;;;;;;;;;;;;7.69;95.81;99453.38;5070718;28;19974;-80
2024/04/08 02:34:31;;;;;;;;;;;;;;;7.64;96.27;99457.31;5070953;28;19916;-84
2024/04/08 02:36:56;;;;;;;;;;;;;;;7.55;96.28;99467.94;5070792;28;19939;-81
2024/04/08 02:39:21;;;;;;;;;;;;;;;7.57;97.12;99470.31;5070912;28;19989;-83
2024/04/08 02:41:47;;;;;;;;;;;;;;;7.38;99.58;99468.78;5071921;28;19923;-81
2024/04/08 02:44:13;;;;;;;;;;;;;;;7.66;100.00;99467.91;5071966;28;20397;-83
2024/04/08 02:46:38;;;;;;;;;;;;;;;7.78;100.00;99471.00;5071823;28;19917;-81
2024/04/08 02:49:03;;;;;;;;;;;;;;;7.88;100.00;99474.13;5069967;28;19923;-82
2024/04/08 02:51:28;;;;;;;;;;;;;;;7.66;100.00;99476.16;5070493;28;19917;-84
2024/04/08 02:53:54;;;;;;;;;;;;;;;7.75;100.00;99479.28;5070734;28;19989;-84
2024/04/08 02:56:20;;;;;;;;;;;;;;;7.71;100.00;99479.31;5070461;28;19920;-82
2024/04/08 02:58:45;;;;;;;;;;;;;;;7.65;100.00;99480.91;5070639;28;19924;-80
2024/04/08 03:01:11;;;;;;;;;;;;;;;7.56;100.00;99483.28;5070576;28;19956;-81
2024/04/08 03:03:36;;;;;;;;;;;;;;;7.67;100.00;99488.72;5070741;28;19995;-84
2024/04/08 03:06:09;;;;;;;;;;;;;;;7.62;100.00;99484.44;5071922;28;20301;-83
2024/04/08 03:08:35;;;;;;;;;;;;;;;7.68;100.00;99487.56;5071030;28;19916;-82
2024/04/08 03:11:01;;;;;;;;;;;;;;;7.57;100.00;99486.81;5070582;28;19956;-81
2024/04/08 03:13:26;;;;;;;;;;;;;;;7.55;100.00;99481.69;5063376;28;20402;-81
2024/04/08 03:15:55;;;;;;;;;;;;;;;7.51;100.00;99491.94;5066094;28;20329;-82
2024/04/08 03:18:20;;;;;;;;;;;;;;;7.47;100.00;99493.13;5070487;28;20441;-81
2024/04/08 03:21:02;;;;;;;;;;;;;;;7.32;99.93;99490.38;5070609;28;19974;-81
2024/04/08 03:23:27;;;;;;;;;;;;;;;7.41;100.00;99491.97;5070665;28;19916;-84
2024/04/08 03:25:56;;;;;;;;;;;;;;;7.44;100.00;99488.41;5070431;28;19923;-82
2024/04/08 03:28:21;;;;;;;;;;;;;;;7.34;100.00;99493.53;5061157;28;20032;-82
2024/04/08 03:30:46;;;;;;;;;;;;;;;7.21;100.00;99489.63;5068833;28;20405;-81
2024/04/08 03:33:12;;;;;;;;;;;;;;;7.23;100.00;99495.50;5070461;28;19921;-81
2024/04/08 03:35:37;;;;;;;;;;;;;;;7.15;100.00;99488.44;5070471;28;20378;-81
2024/04/08 03:38:02;;;;;;;;;;;;;;;7.23;100.00;99497.47;5070344;28;19923;-81
2024/04/08 03:40:28;;;;;;;;;;;;;;;7.40;100.00;99496.66;5071554;28;19921;-83
2024/04/08 03:42:53;;;;;;;;;;;;;;;7.52;100.00;99500.97;5070108;28;19916;-81
2024/04/08 03:45:20;;;;;;;;;;;;;;;7.64;100.00;99495.03;5071196;28;19923;-81
2024/04/08 03:47:46;;;;;;;;;;;;;;;7.57;100.00;99487.59;5070337;28;19917;-82
2024/04/08 03:50:11;;;;;;;;;;;;;;;7.46;100.00;99497.84;5069978;28;19923;-83
2024/04/08 03:52:36;;;;;;;;;;;;;;;7.23;99.58;99497.47;5071268;28;19971;-80
2024/04/08 03:55:02;;;;;;;;;;;;;;;7.10;100.00;99499.84;5070150;28;20019;-80
2024/04/08 03:57:27;;;;;;;;;;;;;;;7.03;99.13;99502.59;5070054;28;19920;-80
2024/04/08 03:59:52;;;;;;;;;;;;;;;6.86;98.24;99500.63;5070108;28;19929;-82
2024/04/08 04:02:18;;;;;;;;;;;;;;;6.86;99.21;99506.91;5072207;28;19923;-81
2024/04/08 04:04:44;;;;;;;;;;;;;;;6.92;98.98;99515.53;5074014;28;19916;-81
2024/04/08 04:07:09;;;;;;;;;;;;;;;6.94;100.00;99513.97;5073984;28;20390;-82
2024/04/08 04:09:35;;;;;;;;;;;;;;;7.05;100.00;99505.75;5073551;28;19931;-80
2024/04/08 04:12:00;;;;;;;;;;;;;;;7.18;100.00;99514.34;5074560;28;19920;-81
2024/04/08 04:14:28;;;;;;;;;;;;;;;7.47;100.00;99507.66;5073035;28;20154;-83
2024/04/08 04:16:53;;;;;;;;;;;;;;;7.78;100.00;99511.47;5073074;28;19924;-82
2024/04/08 04:19:19;;;;;;;;;;;;;;;8.09;100.00;99510.59;5072594;28;19939;-81
2024/04/08 04:21:44;;;;;;;;;;;;;;;8.54;100.00;99508.03;5073432;28;20405;-81
2024/04/08 04:24:09;;;;;;;;;;;;;;;9.08;98.59;99505.66;5073140;28;20065;-82
2024/04/08 04:26:38;;;;;;;;;;;;;;;9.39;95.59;99512.88;5073468;28;19916;-83
2024/04/08 04:29:03;;;;;;;;;;;;;;;9.44;93.72;99512.44;5073184;28;19955;-81
2024/04/08 04:31:40;;;;;;;;;;;;;;;9.47;91.94;99513.56;5074039;28;19967;-84
2024/04/08 04:34:05;;;;;;;;;;;;;;;9.39;90.99;99518.41;5074015;28;19916;-81
2024/04/08 04:36:30;;;;;;;;;;;;;;;9.40;89.93;99508.94;5074702;28;20475;-81
2024/04/08 04:38:56;;;;;;;;;;;;;;;9.60;89.10;99520.94;5073537;28;20015;-81
2024/04/08 04:41:21;;;;;;;;;;;;;;;9.82;88.57;99517.97;5073522;28;19956;-81
2024/04/08 04:43:47;;;;;;;;;;;;;;;10.46;89.83;99520.75;5072868;28;19966;-82
2024/04/08 04:46:12;;;;;;;;;;;;;;;12.05;82.06;99514.53;5072890;28;19912;-85
2024/04/08 04:48:37;;;;;;;;;;;;;;;12.95;71.20;99521.25;5072719;28;20409;-82
2024/04/08 04:51:03;;;;;;;;;;;;;;;13.98;65.45;99520.63;5072887;28;19919;-81
2024/04/08 04:53:28;;;;;;;;;;;;;;;15.46;58.06;99526.38;5072504;28;19916;-80
2024/04/08 04:55:53;;;;;;;;;;;;;;;16.35;52.59;99523.22;5072185;28;19913;-79
2024/04/08 04:58:19;;;;;;;;;;;;;;;16.20;52.25;99529.34;5071797;28;19956;-80
2024/04/08 05:00:44;;;;;;;;;;;;;;;16.52;52.27;99532.94;5071168;28;19916;-81
2024/04/08 05:03:09;;;;;;;;;;;;;;;16.98;50.31;99533.97;5069200;28;19916;-80
2024/04/08 05:05:35;;;;;;;;;;;;;;;17.28;50.37;99523.97;5066604;28;19917;-79
2024/04/08 05:08:00;;;;;;;;;;;;;;;17.79;48.30;99527.03;5069766;28;19991;-83
2024/04/08 05:10:26;;;;;;;;;;;;;;;18.25;46.73;99536.19;5069146;28;20382;-80
2024/04/08 05:12:52;;;;;;;;;;;;;;;19.50;44.01;99520.63;5071493;28;19931;-83
2024/04/08 05:15:17;;;;;;;;;;;;;;;20.13;42.34;99529.81;5072183;28;19916;-83
2024/04/08 05:17:43;;;;;;;;;;;;;;;19.91;42.09;99527.34;5071927;28;20012;-81
2024/04/08 05:20:10;;;;;;;;;;;;;;;20.68;41.03;99524.41;5072170;28;20341;-82
2024/04/08 05:22:35;;;;;;;;;;;;;;;21.59;39.30;99526.03;5072222;28;19913;-84
2024/04/08 05:25:01;;;;;;;;;;;;;;;21.44;38.85;99531.75;5072053;28;19924;-83
2024/04/08 05:27:26;;;;;;;;;;;;;;;21.51;38.78;99527.75;5071600;28;19959;-85
2024/04/08 05:29:51;;;;;;;;;;;;;;;21.46;39.98;99525.59;5072108;28;19924;-85
2024/04/08 05:32:16;;;;;;;;;;;;;;;21.97;39.67;99524.22;5071646;28;20007;-83
2024/04/08 05:34:42;;;;;;;;;;;;;;;22.00;39.14;99529.66;5067627;28;19942;-83
2024/04/08 05:37:07;;;;;;;;;;;;;;;22.42;38.45;99523.44;5068410;28;19920;-84
2024/04/08 05:39:33;;;;;;;;;;;;;;;22.21;37.50;99521.94;5073365;28;19920;-82
2024/04/08 05:42:00;;;;;;;;;;;;;;;21.81;38.27;99531.19;5062941;28;19925;-83
2024/04/08 05:44:25;;;;;;;;;;;;;;;22.07;38.47;99528.44;5070134;28;19923;-83
2024/04/08 05:46:50;;;;;;;;;;;;;;;22.47;39.26;99531.16;5070943;28;19933;-84
2024/04/08 05:49:16;;;;;;;;;;;;;;;22.80;37.72;99533.50;5069412;28;20297;-83
2024/04/08 05:51:41;;;;;;;;;;;;;;;23.77;36.90;99528.75;5070298;28;19916;-83
2024/04/08 05:54:07;;;;;;;;;;;;;;;23.74;36.38;99535.41;5069062;28;19936;-82
2024/04/08 05:56:32;;;;;;;;;;;;;;;23.65;36.76;99535.63;5069823;28;19928;-82
2024/04/08 05:58:57;;;;;;;;;;;;;;;23.93;37.38;99537.25;5070385;28;19916;-83
2024/04/08 06:01:23;;;;;;;;;;;;;;;24.57;36.29;99537.72;5069027;28;20045;-84
2024/04/08 06:03:48;;;;;;;;;;;;;;;25.39;34.70;99532.50;5068973;28;20001;-82
2024/04/08 06:06:17;;;;;;;;;;;;;;;25.77;32.35;99537.31;5068711;28;19912;-82
2024/04/08 06:08:42;;;;;;;;;;;;;;;26.38;30.98;99541.94;5072208;28;20477;-82
2024/04/08 06:11:07;;;;;;;;;;;;;;;26.64;30.93;99541.50;5070504;28;20014;-83
2024/04/08 06:13:33;;;;;;;;;;;;;;;27.32;30.25;99546.06;5070817;28;20011;-83
2024/04/08 06:15:58;;;;;;;;;;;;;;;27.45;29.50;99557.53;5071893;28;19918;-84
2024/04/08 06:18:23;;;;;;;;;;;;;;;26.89;30.37;99551.59;5071025;28;19916;-84
2024/04/08 06:20:52;;;;;;;;;;;;;;;27.58;30.59;99551.22;5070433;28;20385;-83
2024/04/08 06:23:18;;;;;;;;;;;;;;;28.29;28.65;99545.19;5068298;28;19921;-83
2024/04/08 06:25:43;;;;;;;;;;;;;;;28.67;27.86;99537.38;5070029;28;20443;-83
2024/04/08 06:28:08;;;;;;;;;;;;;;;28.63;27.91;99551.88;5059234;28;20038;-83
2024/04/08 06:30:34;;;;;;;;;;;;;;;29.23;27.75;99547.84;5065136;28;19916;-83
2024/04/08 06:32:59;;;;;;;;;;;;;;;29.63;26.48;99546.56;5070814;28;20381;-83
2024/04/08 06:35:24;;;;;;;;;;;;;;;29.57;27.05;99548.00;5072197;28;19919;-84
2024/04/08 06:37:50;;;;;;;;;;;;;;;29.82;26.73;99552.91;5071861;28;19913;-83
2024/04/08 06:40:15;;;;;;;;;;;;;;;29.85;27.63;99556.75;5070305;28;20398;-85
2024/04/08 06:42:40;;;;;;;;;;;;;;;30.10;26.43;99557.28;5071557;28;20013;-83
2024/04/08 06:45:06;;;;;;;;;;;;;;;29.24;26.96;99557.88;5071613;28;19931;-82
2024/04/08 06:47:31;;;;;;;;;;;;;;;28.15;28.77;99557.78;5070643;28;19912;-82
2024/04/08 06:49:56;;;;;;;;;;;;;;;29.37;27.15;99563.63;5071506;28;19956;-84
2024/04/08 06:52:22;;;;;;;;;;;;;;;29.66;27.05;99556.84;5070472;28;20378;-82
2024/04/08 06:54:47;;;;;;;;;;;;;;;29.28;27.66;99544.13;5072405;28;20305;-82
2024/04/08 06:57:12;;;;;;;;;;;;;;;29.62;26.70;99553.56;5072380;28;20385;-82
2024/04/08 06:59:38;;;;;;;;;;;;;;;29.68;27.02;99556.31;5072495;28;19935;-82
2024/04/08 07:02:04;;;;;;;;;;;;;;;30.00;26.89;99561.91;5064054;28;19924;-82
2024/04/08 07:04:29;;;;;;;;;;;;;;;30.15;25.92;99564.94;5065625;28;19967;-83
2024/04/08 07:06:55;;;;;;;;;;;;;;;30.33;26.64;99561.16;5071051;28;19912;-82
2024/04/08 07:09:21;;;;;;;;;;;;;;;30.47;26.24;99561.91;5069931;28;20351;-82
2024/04/08 07:11:46;;;;;;;;;;;;;;;30.36;27.09;99562.16;5069494;28;19919;-82
2024/04/08 07:14:13;;;;;;;;;;;;;;;30.32;26.07;99553.97;5071376;28;19917;-82
2024/04/08 07:16:38;;;;;;;;;;;;;;;31.01;24.52;99566.84;5058270;28;19919;-82
2024/04/08 07:19:04;;;;;;;;;;;;;;;30.82;25.26;99567.06;5069367;28;20304;-83
2024/04/08 07:21:29;;;;;;;;;;;;;;;30.61;24.57;99569.91;5069065;28;19917;-82
2024/04/08 07:23:54;;;;;;;;;;;;;;;30.07;26.07;99573.41;5069481;28;19912;-82
2024/04/08 07:26:19;;;;;;;;;;;;;;;29.95;26.54;99565.66;5070845;28;20007;-83
2024/04/08 07:28:45;;;;;;;;;;;;;;;30.39;25.33;99564.66;5069701;28;19920;-83
2024/04/08 07:31:10;;;;;;;;;;;;;;;29.38;25.65;99565.19;5070554;28;20382;-82
2024/04/08 07:33:35;;;;;;;;;;;;;;;29.91;25.67;99569.59;5065551;28;19931;-82
2024/04/08 07:36:01;;;;;;;;;;;;;;;30.00;25.18;99567.63;5072241;28;19935;-83
2024/04/08 07:38:26;;;;;;;;;;;;;;;29.27;26.12;99571.81;5075204;28;19916;-82
2024/04/08 07:40:51;;;;;;;;;;;;;;;30.05;26.81;99566.72;5074779;28;19923;-83
2024/04/08 07:43:16;;;;;;;;;;;;;;;28.93;27.06;99568.78;5073140;28;19912;-82
2024/04/08 07:45:42;;;;;;;;;;;;;;;28.64;28.14;99572.56;5072737;28;20488;-83
2024/04/08 07:48:07;;;;;;;;;;;;;;;26.02;31.50;99577.88;5074535;28;19923;-82
2024/04/08 07:50:33;;;;;;;;;;;;;;;25.51;33.98;99567.97;5067442;28;19924;-83
2024/04/08 07:52:58;;;;;;;;;;;;;;;23.36;37.72;99576.97;5071402;28;20279;-82
2024/04/08 07:55:23;;;;;;;;;;;;;;;22.75;40.36;99572.91;5063088;28;19913;-82
2024/04/08 07:57:49;;;;;;;;;;;;;;;22.15;39.84;99572.53;5076729;28;19932;-83
2024/04/08 08:00:14;;;;;;;;;;;;;;;21.30;43.27;99573.94;5074658;28;19955;-83
2024/04/08 08:02:39;;;;;;;;;;;;;;;20.63;42.84;99573.63;5075006;28;19935;-83
2024/04/08 08:05:05;;;;;;;;;;;;;;;20.70;44.60;99573.22;5074433;28;19926;-83
2024/04/08 08:07:30;;;;;;;;;;;;;;;20.42;45.50;99574.00;5074394;28;19920;-83
2024/04/08 08:09:56;;;;;;;;;;;;;;;20.37;47.57;99569.84;5075042;28;20306;-83
2024/04/08 08:12:21;;;;;;;;;;;;;;;20.37;46.58;99567.03;5074266;28;19971;-83
2024/04/08 08:14:46;;;;;;;;;;;;;;;20.41;46.46;99564.03;5076171;28;19927;-84
2024/04/08 08:17:12;;;;;;;;;;;;;;;20.40;45.84;99560.44;5074187;28;20333;-86
2024/04/08 08:19:37;;;;;;;;;;;;;;;20.07;45.98;99559.78;5075358;28;19919;-85
2024/04/08 08:22:03;;;;;;;;;;;;;;;19.58;47.72;99555.47;5078723;28;19912;-85
2024/04/08 08:24:29;;;;;;;;;;;;;;;19.77;47.26;99551.28;5072789;28;19917;-84
2024/04/08 08:26:54;;;;;;;;;;;;;;;19.92;47.49;99551.31;5071802;28;20278;-84
2024/04/08 08:29:20;;;;;;;;;;;;;;;19.92;46.73;99549.31;5071194;28;19912;-84
2024/04/08 08:31:45;;;;;;;;;;;;;;;19.83;47.63;99543.00;5071188;28;20362;-85
2024/04/08 08:34:10;;;;;;;;;;;;;;;20.04;48.41;99547.47;5070986;28;20018;-86
2024/04/08 08:36:36;;;;;;;;;;;;;;;20.30;46.96;99545.69;5071111;28;19925;-85
2024/04/08 08:39:02;;;;;;;;;;;;;;;20.69;47.15;99543.59;5071130;28;19927;-84
2024/04/08 08:41:29;;;;;;;;;;;;;;;20.47;44.53;99546.03;5073083;28;19916;-84
2024/04/08 08:43:57;;;;;;;;;;;;;;;20.40;44.07;99542.81;5072587;28;19939;-84
2024/04/08 08:46:25;;;;;;;;;;;;;;;20.25;47.40;99537.94;5071427;28;20007;-83
2024/04/08 08:48:52;;;;;;;;;;;;;;;20.75;46.54;99540.88;5063243;28;19963;-84
2024/04/08 08:51:17;;;;;;;;;;;;;;;20.76;45.83;99542.44;5063107;28;19921;-84
2024/04/08 08:53:43;;;;;;;;;;;;;;;20.61;44.37;99538.88;5071913;28;20397;-84
2024/04/08 08:56:13;;;;;;;;;;;;;;;20.59;41.48;99544.97;5073385;28;20382;-83
2024/04/08 08:58:39;;;;;;;;;;;;;;;20.63;42.42;99539.13;5073772;28;19918;-84
2024/04/08 09:01:04;;;;;;;;;;;;;;;20.55;43.79;99541.59;5073660;28;19913;-84
2024/04/08 09:03:33;;;;;;;;;;;;;;;20.48;40.74;99541.19;5073152;28;20309;-84
2024/04/08 09:06:01;;;;;;;;;;;;;;;20.49;45.81;99528.72;5075176;28;19912;-84
2024/04/08 09:08:27;;;;;;;;;;;;;;;20.96;46.86;99533.31;5062792;28;19917;-84
2024/04/08 09:10:52;;;;;;;;;;;;;;;21.02;37.89;99528.53;5075076;28;19913;-84
2024/04/08 09:13:18;;;;;;;;;;;;;;;21.04;40.28;99529.59;5071266;28;20306;-85
2024/04/08 09:15:44;;;;;;;;;;;;;;;21.03;38.58;99530.88;5069080;28;19938;-86
2024/04/08 09:18:09;;;;;;;;;;;;;;;20.53;37.20;99535.66;5075173;28;20312;-84
2024/04/08 09:20:34;;;;;;;;;;;;;;;20.70;36.16;99521.91;5072754;28;19912;-84
2024/04/08 09:22:59;;;;;;;;;;;;;;;20.71;35.91;99529.84;5051463;28;19935;-84
2024/04/08 09:25:25;;;;;;;;;;;;;;;20.70;37.38;99527.53;5061324;28;19973;-84
2024/04/08 09:27:50;;;;;;;;;;;;;;;20.80;35.61;99522.56;5061583;28;19936;-85
2024/04/08 09:30:16;;;;;;;;;;;;;;;20.82;32.56;99522.84;5058181;28;19927;-83
2024/04/08 09:32:41;;;;;;;;;;;;;;;20.91;36.54;99517.13;5061242;28;19917;-83
2024/04/08 09:35:08;;;;;;;;;;;;;;;20.69;35.93;99518.31;5076325;28;19916;-84
2024/04/08 09:37:33;;;;;;;;;;;;;;;21.10;36.71;99516.41;5073847;28;19959;-85
2024/04/08 09:40:00;;;;;;;;;;;;;;;21.21;34.12;99518.66;5072763;28;20443;-85
2024/04/08 09:42:26;;;;;;;;;;;;;;;20.85;34.40;99516.28;5073105;28;20057;-85
2024/04/08 09:44:52;;;;;;;;;;;;;;;20.71;35.62;99509.41;5073059;28;19923;-84
2024/04/08 09:47:17;;;;;;;;;;;;;;;20.70;35.88;99502.25;5073021;28;19976;-86
2024/04/08 09:49:44;;;;;;;;;;;;;;;20.58;35.86;99497.72;5071775;28;19912;-83
2024/04/08 09:52:11;;;;;;;;;;;;;;;20.59;37.24;99490.84;5072846;28;20019;-85
2024/04/08 09:54:38;;;;;;;;;;;;;;;20.69;37.06;99495.84;5071986;28;20473;-84
2024/04/08 09:57:05;;;;;;;;;;;;;;;20.68;39.12;99485.88;5072030;28;20002;-83
2024/04/08 09:59:34;;;;;;;;;;;;;;;20.82;36.17;99489.94;5070219;28;19916;-84
2024/04/08 10:01:59;;;;;;;;;;;;;;;21.01;38.00;99488.44;5058103;28;19920;-83
2024/04/08 10:06:28;;;;;;;;;;;;;;;20.82;34.23;99487.13;5621532;25;19994;-83
2024/04/08 10:08:54;;;;;;;;;;;;;;;20.78;36.01;99480.16;5588174;25;19938;-85
2024/04/08 10:11:20;;;;;;;;;;;;;;;20.87;38.55;99474.41;5555861;25;20244;-84
2024/04/08 10:13:49;;;;;;;;;;;;;;;21.08;37.08;99476.00;5550712;25;19926;-82
2024/04/08 10:16:14;;;;;;;;;;;;;;;21.01;34.19;99482.03;5576200;25;19941;-84
2024/04/08 10:19:07;;;;;;;;;;;;;;;21.12;36.09;99474.53;5571619;25;19930;-86
2024/04/08 10:21:32;;;;;;;;;;;;;;;21.12;35.66;99473.75;5572084;25;19927;-85
2024/04/08 10:23:58;;;;;;;;;;;;;;;21.18;35.79;99479.47;5579226;25;19993;-83
2024/04/08 10:26:24;;;;;;;;;;;;;;;21.22;35.44;99468.81;5548752;25;20260;-82
2024/04/08 10:28:50;;;;;;;;;;;;;;;20.97;34.01;99471.00;5550020;25;20363;-82
2024/04/08 10:31:18;;;;;;;;;;;;;;;21.12;35.69;99457.69;5539270;25;19973;-83
2024/04/08 10:33:44;;;;;;;;;;;;;;;20.81;35.07;99459.50;5590902;25;19935;-82
2024/04/08 10:36:09;;;;;;;;;;;;;;;20.92;37.11;99454.06;5530040;25;20325;-84
2024/04/08 10:38:34;;;;;;;;;;;;;;;21.05;36.67;99455.28;5550701;25;19938;-85
2024/04/08 10:41:07;;;;;;;;;;;;;;;21.12;37.69;99446.44;5543844;25;20320;-85
2024/04/08 10:43:33;;;;;;;;;;;;;;;21.07;35.29;99452.75;5577005;25;19942;-86
2024/04/08 10:45:58;;;;;;;;;;;;;;;21.13;36.91;99453.59;5581982;25;19934;-84
2024/04/08 10:48:24;;;;;;;;;;;;;;;21.11;35.24;99444.88;5565729;25;20878;-84
2024/04/08 10:50:49;;;;;;;;;;;;;;;20.86;33.88;99450.38;5550617;25;19938;-85
2024/04/08 10:53:15;;;;;;;;;;;;;;;20.86;34.19;99442.72;5571517;25;19934;-87
2024/04/08 10:55:40;;;;;;;;;;;;;;;20.81;36.25;99437.81;5554269;25;19976;-85
2024/04/08 10:58:06;;;;;;;;;;;;;;;21.02;34.62;99449.88;5582210;25;19933;-84
2024/04/08 11:00:32;;;;;;;;;;;;;;;20.94;32.69;99438.25;5575582;25;19933;-85
2024/04/08 11:02:57;;;;;;;;;;;;;;;20.77;33.56;99431.63;5583920;25;19934;-86
2024/04/08 11:05:23;;;;;;;;;;;;;;;20.62;32.86;99436.50;5579380;25;19937;-85
2024/04/08 11:07:48;;;;;;;;;;;;;;;20.50;34.89;99424.31;5571485;25;20284;-85
2024/04/08 11:10:14;;;;;;;;;;;;;;;20.64;33.49;99422.75;5550578;25;19939;-85
2024/04/08 11:12:40;;;;;;;;;;;;;;;20.76;33.73;99418.84;5608216;25;19930;-85
2024/04/08 11:15:06;;;;;;;;;;;;;;;20.66;33.41;99415.41;5564184;25;19933;-83
2024/04/08 11:17:32;;;;;;;;;;;;;;;20.53;32.14;99420.56;5580250;25;19995;-84
2024/04/08 11:19:58;;;;;;;;;;;;;;;20.53;30.46;99417.75;5570694;25;19934;-81
2024/04/08 11:22:23;;;;;;;;;;;;;;;20.50;30.43;99409.50;5570335;25;19926;-85
2024/04/08 11:24:49;;;;;;;;;;;;;;;20.56;32.77;99393.53;5556649;25;19995;-87
2024/04/08 11:27:16;;;;;;;;;;;;;;;20.59;31.49;99392.56;5533164;25;19934;-86
2024/04/08 11:29:44;;;;;;;;;;;;;;;20.59;31.14;99390.53;5533190;25;19935;-84
2024/04/08 11:32:13;;;;;;;;;;;;;;;20.65;31.55;99380.16;5559904;25;19939;-83
2024/04/08 11:34:39;;;;;;;;;;;;;;;20.59;29.50;99376.50;5556141;25;19955;-81
2024/04/08 11:37:06;;;;;;;;;;;;;;;20.62;29.38;99369.09;5558289;25;19952;-82
2024/04/08 11:39:31;;;;;;;;;;;;;;;20.66;28.41;99370.47;5533987;25;19934;-84
2024/04/08 11:41:56;;;;;;;;;;;;;;;20.60;29.36;99363.22;5535620;25;19927;-82
2024/04/08 11:44:30;;;;;;;;;;;;;;;20.76;30.47;99357.06;5570432;25;20258;-83
2024/04/08 11:46:55;;;;;;;;;;;;;;;20.87;30.99;99345.97;5542210;25;19939;-82
2024/04/08 11:49:20;;;;;;;;;;;;;;;20.95;30.99;99349.91;5539092;25;20001;-85
2024/04/08 11:51:45;;;;;;;;;;;;;;;20.88;27.93;99357.97;5570828;25;19930;-81
2024/04/08 11:54:11;;;;;;;;;;;;;;;20.77;27.18;99353.00;5570146;25;20351;-82
2024/04/08 11:56:36;;;;;;;;;;;;;;;20.85;27.04;99348.50;5603455;25;19926;-81
2024/04/08 11:59:01;;;;;;;;;;;;;;;20.96;26.67;99359.13;5603375;25;20266;-82
2024/04/08 12:01:27;;;;;;;;;;;;;;;20.89;26.62;99342.69;5603360;25;19930;-81
2024/04/08 12:03:52;;;;;;;;;;;;;;;20.87;25.58;99354.41;5565000;25;20267;-84
2024/04/08 12:06:17;;;;;;;;;;;;;;;20.91;25.42;99346.56;5549941;25;19927;-80
2024/04/08 12:08:42;;;;;;;;;;;;;;;20.92;25.57;99339.66;5569043;25;20355;-83
2024/04/08 12:11:09;;;;;;;;;;;;;;;21.02;28.44;99334.66;5570004;25;20161;-82
2024/04/08 12:13:35;;;;;;;;;;;;;;;21.18;26.92;99344.59;5553474;25;19926;-83
2024/04/08 12:16:00;;;;;;;;;;;;;;;21.06;22.98;99341.63;5560338;25;20362;-81
2024/04/08 12:18:27;;;;;;;;;;;;;;;21.03;22.11;99337.00;5570829;25;19926;-82
2024/04/08 12:20:53;;;;;;;;;;;;;;;21.15;21.00;99331.50;5568348;25;19942;-81
2024/04/08 12:23:18;;;;;;;;;;;;;;;21.15;23.86;99328.69;5548319;25;19930;-84
2024/04/08 12:25:44;;;;;;;;;;;;;;;21.10;22.50;99339.34;5564808;25;19930;-84
2024/04/08 12:28:09;;;;;;;;;;;;;;;21.00;22.59;99321.09;5565873;25;20335;-82
2024/04/08 12:30:35;;;;;;;;;;;;;;;20.96;24.13;99317.75;5599207;25;19930;-84
2024/04/08 12:33:00;;;;;;;;;;;;;;;20.92;22.53;99331.22;5550940;25;19927;-84
2024/04/08 12:35:26;;;;;;;;;;;;;;;20.92;23.26;99325.59;5556042;25;20356;-83
2024/04/08 12:37:51;;;;;;;;;;;;;;;20.89;25.31;99318.16;5566093;25;19994;-84
2024/04/08 12:40:16;;;;;;;;;;;;;;;20.90;26.26;99321.75;5544223;25;19939;-84
2024/04/08 12:42:42;;;;;;;;;;;;;;;20.95;25.61;99310.59;5594569;25;19996;-84